SAS104 LFPG-ELLX
Flight info
| Callsign | SAS104 |
|---|---|
| Flight time | 0h 29m |
| Altitude | 19000 |
| Route | DIKOL J10 SUIPE M163 MMD |
| Aircraft | B77W/H-SDE1E2E3FGHIJ2J3J4J5M1RWXY/LB1D1 |
Departure
| Time | 2026-05-08 08:09 |
|---|---|
| Airport | Charles de Gaulle International Airport (LFPG) |
Arrival
| Time | 2026-05-08 08:39 |
|---|---|
| Airport | Luxembourg-Findel International Airport (ELLX) |
| Time | Latitude | Longitude | Altitude | Speed | Heading |
|---|---|---|---|---|---|
| 2026-05-08 07:52 | 49.01301 | 2.53800 | 361 ft | 0 kts | 107° |
| 2026-05-08 08:00 | 49.01304 | 2.53787 | 366 ft | 3 kts | 106° |
| 2026-05-08 08:00 | 49.01307 | 2.53755 | 363 ft | 3 kts | 96° |
| 2026-05-08 08:00 | 49.01312 | 2.53723 | 365 ft | 3 kts | 105° |
| 2026-05-08 08:01 | 49.01317 | 2.53692 | 366 ft | 3 kts | 97° |
| 2026-05-08 08:01 | 49.01315 | 2.53660 | 365 ft | 3 kts | 49° |
| 2026-05-08 08:01 | 49.01299 | 2.53648 | 368 ft | 0 kts | 335° |
| 2026-05-08 08:03 | 49.01304 | 2.53645 | 368 ft | 2 kts | 335° |
| 2026-05-08 08:03 | 49.01333 | 2.53628 | 367 ft | 8 kts | 344° |
| 2026-05-08 08:04 | 49.01410 | 2.53610 | 360 ft | 15 kts | 355° |
| 2026-05-08 08:04 | 49.01531 | 2.53608 | 365 ft | 18 kts | 359° |
| 2026-05-08 08:04 | 49.01658 | 2.53593 | 366 ft | 18 kts | 355° |
| 2026-05-08 08:04 | 49.01784 | 2.53578 | 367 ft | 18 kts | 355° |
| 2026-05-08 08:05 | 49.01864 | 2.53466 | 365 ft | 18 kts | 260° |
| 2026-05-08 08:05 | 49.01851 | 2.53272 | 360 ft | 18 kts | 266° |
| 2026-05-08 08:05 | 49.01843 | 2.53077 | 365 ft | 18 kts | 266° |
| 2026-05-08 08:05 | 49.01836 | 2.52881 | 359 ft | 18 kts | 266° |
| 2026-05-08 08:06 | 49.01829 | 2.52688 | 365 ft | 18 kts | 266° |
| 2026-05-08 08:06 | 49.01820 | 2.52490 | 363 ft | 18 kts | 264° |
| 2026-05-08 08:06 | 49.01879 | 2.52342 | 367 ft | 18 kts | 321° |
| 2026-05-08 08:06 | 49.01886 | 2.52204 | 365 ft | 13 kts | 272° |
| 2026-05-08 08:07 | 49.01954 | 2.52118 | 365 ft | 14 kts | 348° |
| 2026-05-08 08:07 | 49.01999 | 2.52112 | 364 ft | 0 kts | 356° |
| 2026-05-08 08:08 | 49.02005 | 2.52112 | 364 ft | 2 kts | 356° |
| 2026-05-08 08:08 | 49.02058 | 2.52108 | 360 ft | 11 kts | 0° |
| 2026-05-08 08:08 | 49.02112 | 2.52190 | 364 ft | 12 kts | 82° |
| 2026-05-08 08:08 | 49.02120 | 2.52367 | 362 ft | 29 kts | 86° |
| 2026-05-08 08:09 | 49.02151 | 2.52952 | 366 ft | 95 kts | 84° |
| 2026-05-08 08:09 | 49.02225 | 2.54390 | 400 ft | 169 kts | 85° |
| 2026-05-08 08:09 | 49.02277 | 2.55568 | 964 ft | 165 kts | 85° |
| 2026-05-08 08:09 | 49.02373 | 2.57882 | 2281 ft | 165 kts | 86° |
| 2026-05-08 08:10 | 49.02435 | 2.59059 | 2778 ft | 172 kts | 85° |
| 2026-05-08 08:10 | 49.02544 | 2.60915 | 3564 ft | 179 kts | 85° |
| 2026-05-08 08:10 | 49.02658 | 2.62875 | 4164 ft | 197 kts | 85° |
| 2026-05-08 08:10 | 49.02790 | 2.65126 | 4445 ft | 231 kts | 84° |
| 2026-05-08 08:11 | 49.02935 | 2.67696 | 4997 ft | 251 kts | 85° |
| 2026-05-08 08:11 | 49.03077 | 2.70399 | 5822 ft | 260 kts | 85° |
| 2026-05-08 08:11 | 49.03219 | 2.73176 | 6702 ft | 266 kts | 84° |
| 2026-05-08 08:11 | 49.03355 | 2.75996 | 7502 ft | 266 kts | 85° |
| 2026-05-08 08:12 | 49.03492 | 2.78844 | 8264 ft | 274 kts | 85° |
| 2026-05-08 08:12 | 49.03634 | 2.81792 | 9081 ft | 283 kts | 85° |
| 2026-05-08 08:12 | 49.03778 | 2.84797 | 10079 ft | 285 kts | 86° |
| 2026-05-08 08:12 | 49.03923 | 2.87835 | 11005 ft | 289 kts | 86° |
| 2026-05-08 08:13 | 49.04069 | 2.90917 | 12011 ft | 293 kts | 87° |
| 2026-05-08 08:13 | 49.04225 | 2.94033 | 13140 ft | 297 kts | 86° |
| 2026-05-08 08:13 | 49.04440 | 2.97149 | 14222 ft | 301 kts | 85° |
| 2026-05-08 08:13 | 49.04682 | 3.00342 | 15223 ft | 306 kts | 85° |
| 2026-05-08 08:14 | 49.04930 | 3.03588 | 16227 ft | 311 kts | 85° |
| 2026-05-08 08:14 | 49.05178 | 3.06886 | 17263 ft | 315 kts | 85° |
| 2026-05-08 08:14 | 49.05428 | 3.10226 | 18309 ft | 319 kts | 85° |
| 2026-05-08 08:14 | 49.05678 | 3.13631 | 18925 ft | 330 kts | 85° |
| 2026-05-08 08:15 | 49.05939 | 3.17249 | 19098 ft | 358 kts | 85° |
| 2026-05-08 08:15 | 49.06221 | 3.21180 | 19099 ft | 387 kts | 85° |
| 2026-05-08 08:15 | 49.06523 | 3.25419 | 19095 ft | 415 kts | 85° |
| 2026-05-08 08:15 | 49.06845 | 3.29931 | 19093 ft | 439 kts | 85° |
| 2026-05-08 08:16 | 49.07178 | 3.34614 | 19085 ft | 447 kts | 85° |
| 2026-05-08 08:16 | 49.07514 | 3.39329 | 19079 ft | 448 kts | 85° |
| 2026-05-08 08:16 | 49.07847 | 3.44050 | 19072 ft | 447 kts | 85° |
| 2026-05-08 08:16 | 49.08176 | 3.48757 | 19066 ft | 446 kts | 85° |
| 2026-05-08 08:17 | 49.08502 | 3.53470 | 19057 ft | 446 kts | 85° |
| 2026-05-08 08:17 | 49.08863 | 3.58159 | 19064 ft | 445 kts | 83° |
| 2026-05-08 08:17 | 49.09330 | 3.62757 | 19069 ft | 444 kts | 82° |
| 2026-05-08 08:17 | 49.09849 | 3.67404 | 19077 ft | 444 kts | 82° |
| 2026-05-08 08:18 | 49.10372 | 3.72053 | 19076 ft | 444 kts | 82° |
| 2026-05-08 08:18 | 49.10881 | 3.76701 | 19073 ft | 444 kts | 82° |
| 2026-05-08 08:18 | 49.11376 | 3.81357 | 19071 ft | 444 kts | 82° |
| 2026-05-08 08:18 | 49.11862 | 3.86013 | 19074 ft | 444 kts | 82° |
| 2026-05-08 08:19 | 49.12342 | 3.90670 | 19078 ft | 444 kts | 82° |
| 2026-05-08 08:19 | 49.12822 | 3.95332 | 19081 ft | 444 kts | 82° |
| 2026-05-08 08:19 | 49.13300 | 3.99994 | 19082 ft | 445 kts | 82° |
| 2026-05-08 08:19 | 49.13994 | 4.04552 | 19071 ft | 443 kts | 70° |
| 2026-05-08 08:20 | 49.15555 | 4.08603 | 19071 ft | 443 kts | 51° |
| 2026-05-08 08:20 | 49.17614 | 4.12138 | 19090 ft | 449 kts | 49° |
| 2026-05-08 08:20 | 49.19648 | 4.15797 | 19085 ft | 452 kts | 51° |
| 2026-05-08 08:20 | 49.21624 | 4.19516 | 19074 ft | 449 kts | 52° |
| 2026-05-08 08:21 | 49.23503 | 4.23306 | 19077 ft | 443 kts | 58° |
| 2026-05-08 08:21 | 49.25004 | 4.27409 | 19080 ft | 440 kts | 66° |
| 2026-05-08 08:21 | 49.26185 | 4.31733 | 18803 ft | 442 kts | 72° |
| 2026-05-08 08:21 | 49.27015 | 4.36232 | 18143 ft | 435 kts | 78° |
| 2026-05-08 08:22 | 49.27710 | 4.40651 | 17438 ft | 429 kts | 78° |
| 2026-05-08 08:22 | 49.28397 | 4.45071 | 16745 ft | 424 kts | 78° |
| 2026-05-08 08:22 | 49.29079 | 4.49432 | 16090 ft | 419 kts | 78° |
| 2026-05-08 08:22 | 49.29761 | 4.53738 | 15454 ft | 414 kts | 77° |
| 2026-05-08 08:23 | 49.30443 | 4.58005 | 14834 ft | 410 kts | 77° |
| 2026-05-08 08:23 | 49.31120 | 4.62219 | 14237 ft | 405 kts | 77° |
| 2026-05-08 08:23 | 49.31793 | 4.66394 | 13630 ft | 401 kts | 77° |
| 2026-05-08 08:23 | 49.32459 | 4.70533 | 12974 ft | 397 kts | 77° |
| 2026-05-08 08:24 | 49.33116 | 4.74627 | 12375 ft | 394 kts | 77° |
| 2026-05-08 08:24 | 49.33764 | 4.78678 | 11768 ft | 390 kts | 77° |
| 2026-05-08 08:24 | 49.34407 | 4.82699 | 11179 ft | 386 kts | 77° |
| 2026-05-08 08:24 | 49.35040 | 4.86676 | 10620 ft | 382 kts | 77° |
| 2026-05-08 08:25 | 49.35664 | 4.90602 | 10273 ft | 373 kts | 77° |
| 2026-05-08 08:25 | 49.36266 | 4.94403 | 10098 ft | 359 kts | 77° |
| 2026-05-08 08:25 | 49.36892 | 4.98017 | 10064 ft | 342 kts | 71° |
| 2026-05-08 08:25 | 49.37819 | 5.01277 | 10072 ft | 326 kts | 63° |
| 2026-05-08 08:26 | 49.38821 | 5.04303 | 10057 ft | 311 kts | 63° |
| 2026-05-08 08:26 | 49.39767 | 5.07201 | 10053 ft | 297 kts | 63° |
| 2026-05-08 08:26 | 49.40667 | 5.10001 | 9956 ft | 289 kts | 64° |
| 2026-05-08 08:26 | 49.41551 | 5.12754 | 9785 ft | 286 kts | 64° |
| 2026-05-08 08:27 | 49.42428 | 5.15493 | 9593 ft | 284 kts | 64° |
| 2026-05-08 08:27 | 49.43297 | 5.18206 | 9360 ft | 283 kts | 64° |
| 2026-05-08 08:27 | 49.44150 | 5.20870 | 9144 ft | 281 kts | 64° |
| 2026-05-08 08:27 | 49.45011 | 5.23560 | 8911 ft | 280 kts | 64° |
| 2026-05-08 08:28 | 49.45870 | 5.26245 | 8688 ft | 279 kts | 64° |
| 2026-05-08 08:28 | 49.46719 | 5.28904 | 8498 ft | 276 kts | 64° |
| 2026-05-08 08:28 | 49.47565 | 5.31558 | 8242 ft | 277 kts | 65° |
| 2026-05-08 08:28 | 49.48404 | 5.34194 | 8148 ft | 271 kts | 64° |
| 2026-05-08 08:29 | 49.49229 | 5.36784 | 8110 ft | 269 kts | 64° |
| 2026-05-08 08:29 | 49.50055 | 5.39385 | 8090 ft | 273 kts | 65° |
| 2026-05-08 08:29 | 49.50893 | 5.42025 | 8093 ft | 276 kts | 64° |
| 2026-05-08 08:29 | 49.51732 | 5.44671 | 8091 ft | 275 kts | 64° |
| 2026-05-08 08:30 | 49.52571 | 5.47313 | 8069 ft | 274 kts | 65° |
| 2026-05-08 08:30 | 49.53406 | 5.49951 | 7893 ft | 274 kts | 64° |
| 2026-05-08 08:30 | 49.55052 | 5.55207 | 7527 ft | 270 kts | 69° |
| 2026-05-08 08:31 | 49.55596 | 5.57951 | 7561 ft | 266 kts | 77° |
| 2026-05-08 08:31 | 49.55998 | 5.60683 | 7532 ft | 257 kts | 79° |
| 2026-05-08 08:31 | 49.56391 | 5.63320 | 7524 ft | 249 kts | 78° |
| 2026-05-08 08:31 | 49.56793 | 5.65908 | 7437 ft | 248 kts | 78° |
| 2026-05-08 08:32 | 49.57198 | 5.68477 | 7353 ft | 245 kts | 77° |
| 2026-05-08 08:32 | 49.57602 | 5.70991 | 7240 ft | 245 kts | 78° |
| 2026-05-08 08:32 | 49.57958 | 5.73530 | 7082 ft | 240 kts | 87° |
| 2026-05-08 08:32 | 49.57675 | 5.76024 | 6819 ft | 236 kts | 110° |
| 2026-05-08 08:33 | 49.57156 | 5.78455 | 6601 ft | 239 kts | 108° |
| 2026-05-08 08:33 | 49.56677 | 5.80886 | 6530 ft | 233 kts | 108° |
| 2026-05-08 08:33 | 49.56211 | 5.83271 | 6174 ft | 232 kts | 108° |
| 2026-05-08 08:33 | 49.55751 | 5.85630 | 5950 ft | 226 kts | 107° |
| 2026-05-08 08:34 | 49.55298 | 5.87948 | 5506 ft | 226 kts | 107° |
| 2026-05-08 08:34 | 49.54848 | 5.90245 | 5147 ft | 221 kts | 107° |
| 2026-05-08 08:34 | 49.54408 | 5.92492 | 4772 ft | 217 kts | 107° |
| 2026-05-08 08:34 | 49.53979 | 5.94671 | 4549 ft | 209 kts | 106° |
| 2026-05-08 08:35 | 49.53934 | 5.96853 | 4188 ft | 206 kts | 74° |
| 2026-05-08 08:35 | 49.54502 | 5.98907 | 3955 ft | 209 kts | 67° |
| 2026-05-08 08:35 | 49.55119 | 6.00896 | 3843 ft | 210 kts | 64° |
| 2026-05-08 08:35 | 49.55821 | 6.02849 | 3529 ft | 200 kts | 62° |
| 2026-05-08 08:36 | 49.56486 | 6.04635 | 3302 ft | 192 kts | 62° |
| 2026-05-08 08:36 | 49.57143 | 6.06462 | 2996 ft | 193 kts | 62° |
| 2026-05-08 08:36 | 49.57830 | 6.08209 | 2748 ft | 188 kts | 59° |
| 2026-05-08 08:36 | 49.58450 | 6.09870 | 2523 ft | 172 kts | 63° |
| 2026-05-08 08:37 | 49.59008 | 6.11387 | 2282 ft | 152 kts | 62° |
| 2026-05-08 08:37 | 49.59520 | 6.12764 | 2080 ft | 146 kts | 61° |
| 2026-05-08 08:37 | 49.60034 | 6.14140 | 1879 ft | 149 kts | 61° |
| 2026-05-08 08:37 | 49.60547 | 6.15515 | 1673 ft | 146 kts | 60° |
| 2026-05-08 08:38 | 49.61063 | 6.16850 | 1445 ft | 143 kts | 62° |
| 2026-05-08 08:38 | 49.61555 | 6.18214 | 1285 ft | 148 kts | 62° |
| 2026-05-08 08:38 | 49.62047 | 6.19571 | 1203 ft | 135 kts | 59° |
| 2026-05-08 08:38 | 49.62443 | 6.20620 | 1256 ft | 90 kts | 60° |
| 2026-05-08 08:39 | 49.62691 | 6.21281 | 1247 ft | 62 kts | 60° |
| 2026-05-08 08:39 | 49.62893 | 6.21828 | 1231 ft | 48 kts | 60° |
| 2026-05-08 08:39 | 49.63025 | 6.22125 | 1228 ft | 24 kts | 26° |
| 2026-05-08 08:39 | 49.63119 | 6.22075 | 1233 ft | 14 kts | 329° |
| 2026-05-08 08:40 | 49.63140 | 6.22055 | 1243 ft | 0 kts | 329° |
| 2026-05-08 08:40 | 49.63174 | 6.22042 | 1249 ft | 6 kts | 2° |
| 2026-05-08 08:40 | 49.63210 | 6.22077 | 1258 ft | 7 kts | 45° |
| 2026-05-08 08:40 | 49.63248 | 6.22122 | 1255 ft | 7 kts | 18° |
| 2026-05-08 08:41 | 49.63293 | 6.22093 | 1256 ft | 8 kts | 318° |
| 2026-05-08 08:41 | 49.63327 | 6.22026 | 1252 ft | 6 kts | 285° |
| 2026-05-08 08:41 | 49.63318 | 6.22003 | 1252 ft | 2 kts | 221° |
| 2026-05-08 08:41 | 49.63302 | 6.21993 | 1248 ft | 3 kts | 203° |
| 2026-05-08 08:42 | 49.63280 | 6.21976 | 1243 ft | 2 kts | 206° |
| 2026-05-08 08:42 | 49.63279 | 6.21975 | 1257 ft | 1 kts | 206° |
| 2026-05-08 08:42 | 49.63268 | 6.21967 | 1253 ft | 2 kts | 206° |
| 2026-05-08 08:42 | 49.63253 | 6.21955 | 1253 ft | 0 kts | 206° |